Chimney Rock, North Carolina
Current Conditions -  °F | °C
As of 5:54 PM on Thursday 23 Oct 2014 (Local Time) from KAVL Reporting Station
Clear Clear  
Wind Chill: 16°   Ceiling: Unl
Heat Index: 16°   Visibility: 10mi
Dew Point:   Wind: 17mph
Humidity: 42%   Direction: 340°NNW
Pressure: 30.06"   Gusts: NA
Location:  35.44°N, 82.25°W
Report Text: KAVL 232154Z 34015KT 10SM CLR 16/03 A3006 RMK AO2 SLP170 T01560028
Loading
Personal Weather Stations






























Interactive Weather Map
Tropical Storm Tracking
New forecast layout! Learn more

10-Day Weather Forecast

Advertisements
Track Severe Weather on mobile